createdAt,value
2019-04-22T00:00:34.023Z,12.98
2019-04-22T00:01:31.257Z,12.95
2019-04-22T00:02:28.540Z,12.91
2019-04-22T00:03:36.038Z,12.92
2019-04-22T00:04:40.242Z,12.98
2019-04-22T00:05:53.244Z,12.89
2019-04-22T00:06:50.063Z,12.88
2019-04-22T00:07:50.923Z,12.89
2019-04-22T00:09:54.840Z,12.94
2019-04-22T00:10:56.146Z,12.92
2019-04-22T00:11:57.242Z,12.88
2019-04-22T00:12:57.760Z,12.85
2019-04-22T00:13:53.434Z,12.85
2019-04-22T00:14:48.400Z,12.81
2019-04-22T00:15:53.864Z,12.84
2019-04-22T00:16:51.779Z,12.85
2019-04-22T00:19:57.718Z,12.62
2019-04-22T00:20:54.453Z,12.63
2019-04-22T00:21:55.773Z,12.48
2019-04-22T00:22:51.888Z,12.51
2019-04-22T00:23:53.109Z,12.48
2019-04-22T00:24:51.219Z,12.49
2019-04-22T00:25:57.257Z,12.52
2019-04-22T00:26:59.974Z,12.52
2019-04-22T00:27:57.554Z,12.44
2019-04-22T00:30:54.794Z,12.51
2019-04-22T00:31:52.871Z,12.38
2019-04-22T00:32:53.672Z,12.31
2019-04-22T00:33:55.927Z,12.33
2019-04-22T00:34:48.763Z,12.36
2019-04-22T00:35:49.414Z,12.31
2019-04-22T00:36:48.283Z,12.30
2019-04-22T00:37:56.717Z,12.31
2019-04-22T00:38:52.680Z,12.22
2019-04-22T00:39:51.763Z,12.16
2019-04-22T00:40:50.703Z,12.05
2019-04-22T00:41:44.093Z,12.07
2019-04-22T00:42:55.390Z,12.03
2019-04-22T00:43:59.650Z,12.04
2019-04-22T00:44:55.869Z,12.04
2019-04-22T00:45:49.283Z,12.01
2019-04-22T00:46:54.433Z,11.98
2019-04-22T00:47:58.070Z,11.97
2019-04-22T00:49:33.167Z,12.03
2019-04-22T00:51:00.152Z,12.00
2019-04-22T00:51:56.875Z,12.04
2019-04-22T00:52:56.054Z,12.01
2019-04-22T00:53:48.846Z,11.84
2019-04-22T00:55:04.230Z,11.79
2019-04-22T00:55:55.319Z,11.72
2019-04-22T00:56:48.180Z,11.87
2019-04-22T00:57:54.243Z,11.87
2019-04-22T00:59:08.189Z,11.85
2019-04-22T00:59:54.896Z,11.78
2019-04-22T01:00:55.596Z,11.90
2019-04-22T01:01:52.540Z,11.87
2019-04-22T01:02:58.924Z,11.82
2019-04-22T01:03:58.371Z,11.75
2019-04-22T01:04:55.974Z,11.75
2019-04-22T01:05:59.703Z,11.78
2019-04-22T01:06:55.617Z,11.69
2019-04-22T01:07:49.573Z,11.69
2019-04-22T01:09:52.080Z,11.48
2019-04-22T01:10:52.727Z,11.48
2019-04-22T01:11:53.707Z,11.49
2019-04-22T01:12:50.066Z,11.51
2019-04-22T01:13:49.578Z,11.42
2019-04-22T01:14:53.801Z,11.53
2019-04-22T01:16:01.522Z,11.48
2019-04-22T01:16:56.492Z,11.41
2019-04-22T01:17:52.472Z,11.38
2019-04-22T01:18:52.258Z,11.26
2019-04-22T01:20:13.086Z,11.23
2019-04-22T01:21:52.290Z,11.17
2019-04-22T01:22:46.242Z,11.17
2019-04-22T01:23:47.632Z,11.12
2019-04-22T01:24:46.655Z,11.27
2019-04-22T01:25:46.145Z,11.08
2019-04-22T01:26:43.701Z,11.13
2019-04-22T01:27:43.381Z,11.26
2019-04-22T01:28:39.532Z,11.21
2019-04-22T01:29:39.750Z,11.05
2019-04-22T01:30:34.996Z,11.16
2019-04-22T01:31:31.465Z,11.03
2019-04-22T01:32:32.826Z,11.05
2019-04-22T01:33:35.350Z,11.11
2019-04-22T01:34:40.504Z,11.01
2019-04-22T01:35:41.148Z,10.99
2019-04-22T01:36:51.710Z,10.95
2019-04-22T01:37:45.665Z,10.95
2019-04-22T01:38:55.411Z,10.86
2019-04-22T01:39:50.475Z,10.93
2019-04-22T01:40:57.897Z,10.87
2019-04-22T01:41:59.782Z,10.86
2019-04-22T01:42:55.831Z,10.81
2019-04-22T01:44:00.693Z,10.72
2019-04-22T01:44:50.979Z,10.70
2019-04-22T01:45:53.223Z,10.68
2019-04-22T01:46:53.917Z,10.68
2019-04-22T01:47:49.153Z,10.68
2019-04-22T01:48:57.775Z,10.66
2019-04-22T01:49:55.512Z,10.63
2019-04-22T01:50:50.000Z,10.52
2019-04-22T01:51:59.823Z,10.69
2019-04-22T01:52:57.033Z,10.63
2019-04-22T01:53:57.681Z,10.72
2019-04-22T01:55:12.255Z,10.68
2019-04-22T01:55:55.415Z,10.72
2019-04-22T01:56:52.622Z,10.72
2019-04-22T01:57:47.734Z,10.72
2019-04-22T01:58:48.303Z,10.78
2019-04-22T01:59:48.771Z,10.72
2019-04-22T02:00:58.154Z,10.65
2019-04-22T02:02:53.231Z,10.63
2019-04-22T02:03:54.500Z,10.52
2019-04-22T02:04:55.147Z,10.47
2019-04-22T02:05:53.577Z,10.52
2019-04-22T02:07:51.556Z,10.51
2019-04-22T02:09:04.126Z,10.46
2019-04-22T02:09:49.575Z,10.43
2019-04-22T02:10:54.971Z,10.46
2019-04-22T02:11:53.397Z,10.52
2019-04-22T02:12:54.115Z,10.42
2019-04-22T02:13:43.094Z,10.43
2019-04-22T02:14:50.636Z,10.43
2019-04-22T02:15:53.807Z,10.38
2019-04-22T02:16:57.004Z,10.39
2019-04-22T02:17:57.922Z,10.34
2019-04-22T02:18:56.032Z,10.29
2019-04-22T02:20:48.556Z,10.17
2019-04-22T02:21:52.781Z,10.24
2019-04-22T02:23:17.599Z,10.20
2019-04-22T02:24:02.687Z,10.14
2019-04-22T02:24:53.809Z,10.14
2019-04-22T02:25:59.246Z,10.17
2019-04-22T02:26:48.218Z,10.13
2019-04-22T02:27:56.622Z,10.09
2019-04-22T02:28:56.454Z,10.06
2019-04-22T02:31:16.885Z,10.17
2019-04-22T02:31:59.408Z,10.11
2019-04-22T02:33:20.005Z,10.10
2019-04-22T02:34:09.336Z,10.16
2019-04-22T02:35:03.725Z,10.13
2019-04-22T02:37:12.487Z,10.06
2019-04-22T02:37:54.353Z,10.09
2019-04-22T02:39:57.292Z,9.88
2019-04-22T02:42:00.745Z,9.96
2019-04-22T02:43:01.727Z,9.93
2019-04-22T02:44:53.715Z,9.89
2019-04-22T02:46:13.425Z,9.91
2019-04-22T02:47:58.568Z,9.89
2019-04-22T02:49:08.560Z,9.85
2019-04-22T02:50:00.220Z,9.83
2019-04-22T02:51:02.152Z,9.85
2019-04-22T02:51:52.298Z,9.77
2019-04-22T02:52:50.223Z,9.77
2019-04-22T02:55:11.541Z,9.78
2019-04-22T02:56:02.108Z,9.75
2019-04-22T02:56:56.461Z,9.67
2019-04-22T02:58:12.570Z,9.58
2019-04-22T02:59:04.192Z,9.60
2019-04-22T03:00:08.710Z,9.56
2019-04-22T03:05:06.788Z,9.65
2019-04-22T03:06:07.898Z,9.59
2019-04-22T03:06:46.171Z,9.55
2019-04-22T03:08:01.609Z,9.55
2019-04-22T03:09:12.524Z,9.50
2019-04-22T03:11:15.190Z,9.49
2019-04-22T03:12:04.583Z,9.44
2019-04-22T03:12:53.947Z,9.48
2019-04-22T03:16:54.891Z,9.44
2019-04-22T03:20:02.702Z,9.30
2019-04-22T03:20:58.164Z,9.31
2019-04-22T03:21:54.845Z,9.31
2019-04-22T03:23:05.737Z,9.30
2019-04-22T03:24:05.987Z,9.23
2019-04-22T03:25:23.838Z,9.30
2019-04-22T03:26:13.383Z,9.19
2019-04-22T03:26:58.540Z,9.16
2019-04-22T03:28:10.258Z,9.19
2019-04-22T03:30:18.810Z,9.22
2019-04-22T03:34:39.136Z,9.17
2019-04-22T03:36:10.078Z,9.19
2019-04-22T03:37:50.526Z,9.08
2019-04-22T03:40:04.375Z,9.08
2019-04-22T03:42:05.843Z,9.10
2019-04-22T03:43:09.217Z,8.98
2019-04-22T03:44:10.840Z,8.94
2019-04-22T03:45:00.455Z,8.86
2019-04-22T03:45:58.703Z,8.91
2019-04-22T03:49:12.159Z,8.89
2019-04-22T03:51:04.046Z,8.79
2019-04-22T03:52:05.349Z,8.80
2019-04-22T03:53:06.274Z,8.85
2019-04-22T03:54:21.264Z,8.76
2019-04-22T03:55:09.185Z,8.79
2019-04-22T03:55:57.558Z,8.79
2019-04-22T03:57:51.954Z,8.79
2019-04-22T03:59:09.904Z,8.79
2019-04-22T03:59:57.301Z,8.75
2019-04-22T04:01:02.582Z,8.65
2019-04-22T04:04:18.678Z,8.55
2019-04-22T04:04:49.524Z,8.64
2019-04-22T04:06:20.825Z,8.60
2019-04-22T04:07:22.495Z,8.57
2019-04-22T04:08:58.941Z,8.58
2019-04-22T04:10:07.928Z,8.60
2019-04-22T04:11:06.426Z,8.54
2019-04-22T04:11:59.340Z,8.64
2019-04-22T04:13:08.411Z,8.70
2019-04-22T04:14:01.029Z,8.63
2019-04-22T04:15:12.273Z,8.60
2019-04-22T04:15:52.599Z,8.73
2019-04-22T04:17:11.466Z,8.58
2019-04-22T04:18:09.175Z,8.71
2019-04-22T04:19:13.919Z,8.76
2019-04-22T04:21:57.791Z,8.79
2019-04-22T04:25:56.489Z,8.52
2019-04-22T04:27:07.406Z,8.54
2019-04-22T04:28:24.567Z,8.50
2019-04-22T04:29:10.168Z,8.50
2019-04-22T04:31:09.948Z,8.60
2019-04-22T04:32:09.837Z,8.58
2019-04-22T04:32:57.222Z,8.64
2019-04-22T04:33:54.429Z,8.60
2019-04-22T04:35:54.525Z,8.63
2019-04-22T04:40:04.732Z,8.64
2019-04-22T04:40:58.568Z,8.68
2019-04-22T04:42:07.390Z,8.64
2019-04-22T04:43:10.026Z,8.60
2019-04-22T04:46:02.893Z,8.60
2019-04-22T04:46:58.445Z,8.47
2019-04-22T04:47:54.520Z,8.57
2019-04-22T04:50:02.649Z,8.61
2019-04-22T04:51:07.720Z,8.63
2019-04-22T04:52:03.944Z,8.63
2019-04-22T04:53:19.129Z,8.52
2019-04-22T04:54:04.161Z,8.52
2019-04-22T04:55:09.691Z,8.45
2019-04-22T04:55:59.851Z,8.55
2019-04-22T04:58:10.094Z,8.61
2019-04-22T04:59:06.349Z,8.49
2019-04-22T05:01:56.057Z,8.52
2019-04-22T05:04:14.205Z,8.49
2019-04-22T05:05:06.498Z,8.61
2019-04-22T05:05:59.270Z,8.57
2019-04-22T05:07:56.031Z,8.60
2019-04-22T05:10:03.771Z,8.58
2019-04-22T05:12:03.655Z,8.63
2019-04-22T05:12:57.259Z,8.63
2019-04-22T05:13:57.793Z,8.68
2019-04-22T05:14:57.767Z,8.57
2019-04-22T05:16:09.332Z,8.75
2019-04-22T05:16:54.810Z,8.73
2019-04-22T05:17:57.711Z,8.71
2019-04-22T05:19:07.864Z,8.71
2019-04-22T05:19:56.827Z,8.78
2019-04-22T05:21:53.292Z,8.73
2019-04-22T05:23:55.012Z,8.79
2019-04-22T05:24:53.852Z,8.73
2019-04-22T05:25:53.517Z,8.79
2019-04-22T05:28:52.198Z,8.67
2019-04-22T05:30:46.046Z,8.76
2019-04-22T05:31:52.246Z,8.78
2019-04-22T05:32:51.507Z,8.80
2019-04-22T05:33:54.536Z,8.73
2019-04-22T05:34:48.613Z,8.83
2019-04-22T05:35:49.299Z,8.82
2019-04-22T05:37:01.159Z,8.85
2019-04-22T05:38:58.212Z,8.79
2019-04-22T05:39:49.649Z,8.83
2019-04-22T05:40:50.088Z,8.83
2019-04-22T05:41:48.834Z,8.88
2019-04-22T05:42:51.275Z,8.91
2019-04-22T05:43:50.302Z,8.86
2019-04-22T05:44:49.683Z,8.88
2019-04-22T05:45:54.798Z,8.91
2019-04-22T05:46:49.793Z,8.89
2019-04-22T05:47:55.109Z,8.93
2019-04-22T05:48:54.105Z,8.97
2019-04-22T05:49:48.560Z,8.97
2019-04-22T05:50:50.412Z,8.98
2019-04-22T05:51:48.098Z,9.12
2019-04-22T05:52:47.105Z,9.03
2019-04-22T05:53:47.562Z,9.04
2019-04-22T05:54:48.707Z,9.03
2019-04-22T05:55:47.902Z,9.08
2019-04-22T05:57:00.817Z,9.15
2019-04-22T05:57:51.013Z,9.16
2019-04-22T05:58:52.817Z,9.26
2019-04-22T05:59:57.369Z,9.20
2019-04-22T06:01:12.743Z,9.19
2019-04-22T06:02:13.571Z,9.23
2019-04-22T06:02:53.484Z,9.27
2019-04-22T06:03:52.862Z,9.26
2019-04-22T06:04:54.983Z,9.27
2019-04-22T06:05:47.255Z,9.34
2019-04-22T06:06:51.799Z,9.32
2019-04-22T06:07:47.198Z,9.37
2019-04-22T06:08:50.689Z,9.41
2019-04-22T06:09:49.882Z,9.42
2019-04-22T06:10:54.084Z,9.41
2019-04-22T06:11:36.303Z,9.45
2019-04-22T06:12:43.022Z,9.52
2019-04-22T06:13:45.330Z,9.56
2019-04-22T06:14:48.176Z,9.59
2019-04-22T06:15:50.055Z,9.60
2019-04-22T06:16:54.004Z,9.62
2019-04-22T06:17:54.785Z,9.68
2019-04-22T06:18:48.983Z,9.71
2019-04-22T06:19:50.516Z,9.75
2019-04-22T06:20:53.466Z,9.81
2019-04-22T06:22:06.873Z,9.73
2019-04-22T06:22:50.349Z,9.85
2019-04-22T06:23:56.583Z,9.86
2019-04-22T06:24:53.879Z,9.89
2019-04-22T06:27:01.523Z,10.01
2019-04-22T06:27:53.900Z,10.04
2019-04-22T06:28:51.892Z,10.07
2019-04-22T06:29:46.410Z,10.11
2019-04-22T06:30:53.494Z,10.20
2019-04-22T06:32:11.701Z,10.25
2019-04-22T06:32:47.284Z,10.35
2019-04-22T06:33:48.534Z,10.36
2019-04-22T06:34:48.748Z,10.39
2019-04-22T06:35:54.606Z,10.51
2019-04-22T06:36:57.004Z,10.54
2019-04-22T06:38:09.711Z,10.54
2019-04-22T06:38:46.665Z,10.65
2019-04-22T06:39:46.650Z,10.68
2019-04-22T06:40:56.766Z,10.65
2019-04-22T06:41:51.651Z,10.80
2019-04-22T06:42:52.574Z,10.80
2019-04-22T06:43:56.183Z,10.81
2019-04-22T06:44:52.669Z,10.88
2019-04-22T06:45:43.834Z,10.88
2019-04-22T06:47:10.560Z,10.98
2019-04-22T06:48:50.877Z,11.12
2019-04-22T06:49:52.699Z,11.12
2019-04-22T06:50:48.874Z,11.16
2019-04-22T06:51:55.796Z,11.24
2019-04-22T06:52:52.292Z,11.36
2019-04-22T06:53:51.918Z,11.28
2019-04-22T06:54:48.896Z,11.38
2019-04-22T06:55:45.880Z,11.48
2019-04-22T06:56:50.665Z,11.57
2019-04-22T06:57:45.256Z,11.64
2019-04-22T06:58:45.777Z,11.70
2019-04-22T06:59:53.552Z,11.85
2019-04-22T07:00:44.674Z,11.93
2019-04-22T07:01:48.618Z,11.96
2019-04-22T07:03:17.223Z,12.01
2019-04-22T07:04:49.338Z,12.18
2019-04-22T07:05:46.365Z,12.22
2019-04-22T07:07:45.376Z,12.33
2019-04-22T07:09:48.534Z,12.46
2019-04-22T07:10:48.021Z,12.52
2019-04-22T07:11:43.316Z,12.48
2019-04-22T07:12:49.279Z,12.59
2019-04-22T07:13:50.309Z,12.62
2019-04-22T07:14:48.811Z,12.69
2019-04-22T07:15:55.200Z,12.79
2019-04-22T07:16:54.243Z,12.88
2019-04-22T07:17:50.892Z,12.88
2019-04-22T07:18:48.469Z,12.98
2019-04-22T07:19:45.176Z,13.04
2019-04-22T07:20:51.219Z,13.13
2019-04-22T07:21:57.498Z,13.21
2019-04-22T07:22:45.400Z,13.32
2019-04-22T07:23:51.353Z,13.38
2019-04-22T07:25:47.571Z,13.61
2019-04-22T07:26:45.121Z,13.57
2019-04-22T07:27:47.353Z,13.71
2019-04-22T07:28:46.651Z,13.79
2019-04-22T07:29:55.353Z,13.71
2019-04-22T07:30:44.828Z,13.81
2019-04-22T07:31:49.607Z,13.84
2019-04-22T07:33:04.226Z,13.90
2019-04-22T07:33:58.360Z,13.94
2019-04-22T07:36:00.595Z,14.06
2019-04-22T07:36:54.852Z,14.19
2019-04-22T07:38:05.910Z,14.24
2019-04-22T07:38:45.564Z,14.35
2019-04-22T07:39:45.830Z,14.34
2019-04-22T07:41:48.874Z,14.48
2019-04-22T07:42:52.113Z,14.61
2019-04-22T07:44:10.229Z,14.56
2019-04-22T07:44:51.198Z,14.61
2019-04-22T07:45:48.929Z,14.64
2019-04-22T07:47:52.139Z,14.69
2019-04-22T07:51:44.604Z,15.04
2019-04-22T07:52:45.615Z,15.11
2019-04-22T07:53:48.947Z,15.19
2019-04-22T07:54:46.883Z,15.20
2019-04-22T07:55:47.286Z,15.16
2019-04-22T07:56:50.734Z,15.27
2019-04-22T07:57:47.646Z,15.33
2019-04-22T07:58:48.896Z,15.40
2019-04-22T07:59:52.400Z,15.40
2019-04-22T08:00:44.904Z,15.60
2019-04-22T08:01:41.857Z,15.52
2019-04-22T08:02:51.697Z,15.66
2019-04-22T08:04:15.254Z,15.64
2019-04-22T08:04:58.005Z,15.68
2019-04-22T08:05:58.582Z,15.68
2019-04-22T08:06:52.816Z,15.73
2019-04-22T08:07:52.442Z,15.73
2019-04-22T08:08:45.474Z,15.88
2019-04-22T08:09:53.917Z,15.81
2019-04-22T08:10:49.983Z,15.84
2019-04-22T08:11:49.953Z,15.89
2019-04-22T08:13:49.858Z,16.10
2019-04-22T08:14:45.953Z,16.11
2019-04-22T08:16:51.298Z,16.26
2019-04-22T08:18:00.263Z,16.30
2019-04-22T08:18:45.683Z,16.33
2019-04-22T08:19:48.454Z,16.42
2019-04-22T08:20:47.187Z,16.42
2019-04-22T08:21:52.097Z,16.41
2019-04-22T08:22:51.147Z,16.44
2019-04-22T08:23:50.995Z,16.45
2019-04-22T08:24:51.424Z,16.47
2019-04-22T08:25:49.520Z,16.48
2019-04-22T08:26:46.037Z,16.57
2019-04-22T08:27:50.454Z,16.59
2019-04-22T08:29:53.889Z,16.72
2019-04-22T08:30:48.954Z,16.72
2019-04-22T08:31:48.674Z,16.73
2019-04-22T08:32:46.112Z,16.80
2019-04-22T08:33:46.602Z,16.82
2019-04-22T08:34:42.787Z,16.84
2019-04-22T08:36:00.880Z,16.85
2019-04-22T08:37:52.571Z,16.98
2019-04-22T08:38:52.819Z,17.02
2019-04-22T08:40:07.728Z,17.09
2019-04-22T08:40:53.361Z,17.12
2019-04-22T08:44:01.198Z,17.27
2019-04-22T08:45:08.124Z,17.35
2019-04-22T08:45:56.915Z,17.32
2019-04-22T08:46:48.978Z,17.45
2019-04-22T08:48:01.637Z,17.42
2019-04-22T08:49:58.353Z,17.65
2019-04-22T08:50:47.050Z,17.68
2019-04-22T08:51:43.843Z,17.76
2019-04-22T08:52:54.399Z,17.76
2019-04-22T08:53:57.248Z,17.84
2019-04-22T08:54:55.382Z,17.84
2019-04-22T08:55:56.734Z,17.87
2019-04-22T08:56:45.031Z,18.01
2019-04-22T08:58:50.779Z,18.11
2019-04-22T08:59:48.972Z,18.31
2019-04-22T09:00:49.932Z,18.35
2019-04-22T09:01:46.943Z,18.36
2019-04-22T09:02:46.642Z,18.38
2019-04-22T09:03:46.903Z,18.47
2019-04-22T09:04:45.037Z,18.39
2019-04-22T09:06:01.966Z,18.44
2019-04-22T09:07:46.977Z,18.54
2019-04-22T09:08:50.478Z,18.54
2019-04-22T09:09:44.568Z,18.51
2019-04-22T09:10:49.663Z,18.50
2019-04-22T09:11:53.241Z,18.57
2019-04-22T09:12:56.861Z,18.65
2019-04-22T09:13:50.421Z,18.74
2019-04-22T09:14:47.635Z,18.86
2019-04-22T09:15:50.962Z,18.79
2019-04-22T09:16:49.793Z,18.82
2019-04-22T09:17:47.798Z,18.82
2019-04-22T09:18:48.233Z,18.90
2019-04-22T09:19:48.148Z,18.90
2019-04-22T09:20:49.319Z,19.05
2019-04-22T09:21:54.541Z,19.02
2019-04-22T09:22:47.243Z,19.09
2019-04-22T09:23:54.044Z,19.24
2019-04-22T09:24:50.341Z,19.32
2019-04-22T09:25:48.465Z,19.30
2019-04-22T09:26:48.704Z,19.34
2019-04-22T09:28:54.536Z,19.55
2019-04-22T09:29:42.854Z,19.52
2019-04-22T09:30:50.259Z,19.53
2019-04-22T09:31:56.668Z,19.67
2019-04-22T09:32:56.242Z,19.61
2019-04-22T09:33:43.241Z,19.68
2019-04-22T09:34:46.979Z,19.76
2019-04-22T09:35:52.468Z,19.80
2019-04-22T09:36:55.454Z,19.82
2019-04-22T09:37:48.301Z,19.87
2019-04-22T09:39:51.985Z,20.12
2019-04-22T09:40:46.940Z,20.13
2019-04-22T09:41:48.375Z,20.22
2019-04-22T09:42:53.292Z,20.26
2019-04-22T09:44:47.795Z,20.48
2019-04-22T09:45:48.019Z,20.42
2019-04-22T09:46:47.280Z,20.41
2019-04-22T09:47:53.761Z,20.60
2019-04-22T09:48:55.741Z,20.72
2019-04-22T09:49:53.187Z,20.71
2019-04-22T09:50:48.146Z,20.75
2019-04-22T09:51:44.900Z,20.72
2019-04-22T09:52:48.965Z,20.85
2019-04-22T09:53:54.766Z,20.85
2019-04-22T09:54:57.020Z,20.85
2019-04-22T09:55:43.103Z,21.03
2019-04-22T09:57:48.264Z,21.15
2019-04-22T09:58:53.658Z,21.15
2019-04-22T09:59:51.176Z,21.26
2019-04-22T10:00:59.781Z,21.28
2019-04-22T10:02:02.365Z,21.33
2019-04-22T10:02:47.590Z,21.45
2019-04-22T10:03:51.643Z,21.52
2019-04-22T10:04:50.113Z,21.48
2019-04-22T10:05:54.105Z,21.38
2019-04-22T10:06:41.174Z,21.53
2019-04-22T10:07:50.234Z,21.55
2019-04-22T10:10:48.944Z,21.59
2019-04-22T10:11:45.491Z,21.63
2019-04-22T10:13:49.291Z,21.81
2019-04-22T10:15:49.745Z,21.93
2019-04-22T10:17:44.421Z,22.01
2019-04-22T10:18:49.018Z,22.11
2019-04-22T10:19:46.803Z,22.08
2019-04-22T10:20:51.841Z,22.14
2019-04-22T10:21:57.250Z,22.30
2019-04-22T10:22:46.100Z,22.27
2019-04-22T10:23:44.383Z,22.27
2019-04-22T10:24:44.699Z,22.33
2019-04-22T10:25:50.878Z,22.26
2019-04-22T10:26:46.895Z,22.41
2019-04-22T10:27:47.740Z,22.41
2019-04-22T10:28:56.133Z,22.45
2019-04-22T10:29:59.831Z,22.54
2019-04-22T10:30:48.820Z,22.60
2019-04-22T10:31:43.698Z,22.45
2019-04-22T10:32:43.012Z,22.61
2019-04-22T10:33:38.151Z,22.60
2019-04-22T10:34:34.050Z,22.82
2019-04-22T10:35:23.621Z,22.86
2019-04-22T10:36:21.461Z,22.89
2019-04-22T10:37:23.405Z,22.99
2019-04-22T10:38:19.310Z,23.04
2019-04-22T10:39:20.312Z,23.03
2019-04-22T10:40:19.638Z,23.01
2019-04-22T10:41:20.571Z,23.11
2019-04-22T10:42:19.268Z,23.19
2019-04-22T10:43:19.269Z,23.14
2019-04-22T10:44:19.315Z,23.21
2019-04-22T10:45:19.239Z,23.44
2019-04-22T10:46:19.956Z,23.44
2019-04-22T10:47:20.081Z,23.41
2019-04-22T10:48:19.205Z,23.54
2019-04-22T10:49:20.307Z,23.60
2019-04-22T10:50:20.514Z,23.52
2019-04-22T10:51:19.181Z,23.56
2019-04-22T10:52:19.162Z,23.54
2019-04-22T10:53:19.768Z,23.64
2019-04-22T10:54:19.772Z,23.79
2019-04-22T10:55:19.308Z,23.93
2019-04-22T10:56:19.119Z,24.04
2019-04-22T10:57:20.127Z,24.11
2019-04-22T10:58:20.532Z,24.19
2019-04-22T10:59:20.490Z,24.31
2019-04-22T11:00:19.773Z,24.39
2019-04-22T11:01:19.070Z,24.52
2019-04-22T11:02:19.269Z,24.53
2019-04-22T11:03:20.267Z,24.59
2019-04-22T11:04:19.468Z,24.60
2019-04-22T11:05:19.957Z,24.52
2019-04-22T11:06:19.220Z,24.67
2019-04-22T11:07:24.582Z,24.83
2019-04-22T11:08:29.751Z,24.79
2019-04-22T11:09:22.088Z,24.80
2019-04-22T11:10:35.316Z,24.90
2019-04-22T11:11:32.520Z,25.05
2019-04-22T11:12:23.374Z,25.20
2019-04-22T11:13:20.216Z,25.30
2019-04-22T11:14:19.115Z,25.38
2019-04-22T11:15:18.954Z,25.27
2019-04-22T11:16:19.371Z,25.36
2019-04-22T11:17:19.544Z,25.36
2019-04-22T11:18:19.828Z,25.49
2019-04-22T11:19:19.438Z,25.56
2019-04-22T11:20:19.870Z,25.67
2019-04-22T11:21:19.942Z,25.72
2019-04-22T11:22:24.526Z,25.89
2019-04-22T11:23:20.574Z,26.03
2019-04-22T11:24:18.912Z,26.13
2019-04-22T11:25:18.824Z,26.24
2019-04-22T11:26:19.872Z,26.44
2019-04-22T11:27:18.929Z,26.54
2019-04-22T11:28:19.939Z,26.69
2019-04-22T11:29:19.575Z,26.69
2019-04-22T11:30:22.281Z,26.84
2019-04-22T11:31:20.715Z,26.94
2019-04-22T11:32:20.157Z,27.02
2019-04-22T11:33:18.734Z,27.18
2019-04-22T11:34:19.367Z,27.18
2019-04-22T11:35:19.523Z,27.12
2019-04-22T11:36:19.938Z,27.02
2019-04-22T11:37:18.689Z,27.16
2019-04-22T11:38:19.052Z,27.23
2019-04-22T11:39:19.718Z,27.33
2019-04-22T11:40:26.447Z,27.43
2019-04-22T11:41:19.647Z,27.50
2019-04-22T11:42:18.638Z,27.52
2019-04-22T11:43:19.881Z,27.69
2019-04-22T11:44:19.155Z,27.52
2019-04-22T11:45:19.369Z,27.45
2019-04-22T11:46:18.596Z,27.43
2019-04-22T11:47:19.250Z,27.59
2019-04-22T11:48:19.528Z,27.74
2019-04-22T11:49:18.566Z,27.65
2019-04-22T11:50:19.576Z,27.87
2019-04-22T11:51:19.908Z,27.84
2019-04-22T11:52:19.134Z,27.93
2019-04-22T11:53:18.700Z,27.96
2019-04-22T11:54:18.888Z,27.99
2019-04-22T11:55:19.146Z,28.14
2019-04-22T11:56:18.865Z,28.14
2019-04-22T11:57:19.141Z,27.96
2019-04-22T11:58:18.969Z,28.09
2019-04-22T11:59:18.686Z,28.08
2019-04-22T12:00:18.790Z,28.11
2019-04-22T12:01:19.200Z,28.30
2019-04-22T12:02:20.062Z,28.35
2019-04-22T12:03:18.794Z,28.50
2019-04-22T12:04:18.408Z,28.54
2019-04-22T12:05:19.618Z,28.50
2019-04-22T12:06:19.752Z,28.50
2019-04-22T12:07:19.064Z,28.52
2019-04-22T12:08:18.368Z,28.38
2019-04-22T12:09:19.508Z,28.27
2019-04-22T12:10:29.869Z,28.33
2019-04-22T12:11:20.658Z,28.36
2019-04-22T12:12:18.329Z,28.42
2019-04-22T12:13:19.833Z,28.55
2019-04-22T12:14:18.307Z,28.72
2019-04-22T12:15:19.079Z,28.52
2019-04-22T12:16:19.170Z,28.55
2019-04-22T12:17:18.292Z,28.60
2019-04-22T12:18:19.558Z,28.70
2019-04-22T12:19:18.950Z,28.70
2019-04-22T12:20:19.780Z,28.73
2019-04-22T12:21:19.389Z,28.82
2019-04-22T12:22:18.224Z,28.88
2019-04-22T12:23:18.965Z,28.91
2019-04-22T12:24:19.289Z,28.95
2019-04-22T12:25:32.001Z,28.97
2019-04-22T12:26:21.001Z,28.98
2019-04-22T12:27:19.120Z,29.12
2019-04-22T12:28:19.115Z,29.18
2019-04-22T12:29:18.150Z,29.35
2019-04-22T12:30:19.464Z,29.49
2019-04-22T12:31:19.299Z,29.70
2019-04-22T12:32:18.123Z,29.81
2019-04-22T12:33:19.185Z,30.19
2019-04-22T12:34:19.466Z,30.30
2019-04-22T12:35:18.119Z,30.56
2019-04-22T12:36:18.353Z,30.67
2019-04-22T12:37:24.824Z,30.66
2019-04-22T12:38:20.225Z,30.40
2019-04-22T12:39:18.052Z,30.13
2019-04-22T12:40:30.177Z,30.01
2019-04-22T12:41:19.734Z,29.84
2019-04-22T12:42:19.489Z,29.66
2019-04-22T12:43:20.238Z,29.86
2019-04-22T12:44:18.145Z,31.23
2019-04-22T12:45:18.402Z,33.55
2019-04-22T12:46:18.516Z,35.96
2019-04-22T12:47:17.966Z,38.10
2019-04-22T12:48:19.091Z,40.09
2019-04-22T12:49:18.208Z,41.63
2019-04-22T12:50:24.354Z,42.98
2019-04-22T12:51:18.977Z,44.05
2019-04-22T12:52:26.638Z,44.82
2019-04-22T12:53:22.563Z,45.58
2019-04-22T12:54:19.340Z,46.42
2019-04-22T12:55:17.888Z,46.61
2019-04-22T12:56:19.381Z,47.08
2019-04-22T12:57:18.816Z,47.66
2019-04-22T12:58:18.158Z,48.10
2019-04-22T12:59:19.255Z,48.29
2019-04-22T13:00:17.844Z,48.76
2019-04-22T13:01:19.084Z,49.02
2019-04-22T13:02:18.788Z,48.92
2019-04-22T13:03:18.144Z,48.99
2019-04-22T13:04:19.920Z,49.11
2019-04-22T13:05:19.782Z,49.15
2019-04-22T13:06:17.794Z,49.32
2019-04-22T13:07:17.790Z,49.40
2019-04-22T13:08:18.101Z,49.61
2019-04-22T13:09:19.502Z,49.97
2019-04-22T13:10:17.821Z,50.12
2019-04-22T13:11:22.026Z,50.16
2019-04-22T13:12:19.334Z,50.34
2019-04-22T13:13:18.914Z,50.66
2019-04-22T13:14:19.187Z,51.04
2019-04-22T13:15:18.221Z,51.42
2019-04-22T13:16:17.717Z,51.53
2019-04-22T13:17:18.952Z,51.31
2019-04-22T13:18:28.795Z,50.85
2019-04-22T13:19:20.956Z,50.48
2019-04-22T13:20:20.079Z,49.77
2019-04-22T13:21:18.591Z,50.02
2019-04-22T13:22:19.052Z,49.74
2019-04-22T13:23:18.112Z,49.15
2019-04-22T13:24:19.879Z,48.73
2019-04-22T13:25:17.750Z,48.31
2019-04-22T13:26:18.995Z,48.02
2019-04-22T13:27:19.245Z,47.57
2019-04-22T13:28:19.113Z,47.20
2019-04-22T13:29:19.130Z,46.90
2019-04-22T13:30:18.628Z,46.18
2019-04-22T13:31:20.453Z,45.41
2019-04-22T13:32:18.636Z,44.47
2019-04-22T13:33:19.032Z,43.67
2019-04-22T13:34:26.248Z,43.10
2019-04-22T13:35:20.240Z,42.62
2019-04-22T13:36:21.793Z,41.95
2019-04-22T13:37:19.136Z,41.74
2019-04-22T13:38:17.543Z,41.67
2019-04-22T13:39:18.814Z,41.72
2019-04-22T13:40:19.037Z,41.32
2019-04-22T13:41:30.490Z,40.61
2019-04-22T13:42:21.509Z,40.09
2019-04-22T13:43:18.782Z,39.00
2019-04-22T13:44:18.850Z,38.24
2019-04-22T13:45:17.912Z,37.45
2019-04-22T13:46:17.486Z,36.99
2019-04-22T13:47:34.766Z,36.78
2019-04-22T13:48:38.734Z,36.71
2019-04-22T13:49:56.596Z,36.94
2019-04-22T13:50:49.960Z,37.24
2019-04-22T13:51:52.568Z,37.59
2019-04-22T13:53:00.669Z,38.04
2019-04-22T13:54:16.127Z,38.52
2019-04-22T13:54:50.403Z,38.72
2019-04-22T13:55:59.178Z,38.92
2019-04-22T13:56:38.301Z,39.32
2019-04-22T13:57:38.200Z,39.39
2019-04-22T13:58:34.298Z,39.41
2019-04-22T13:59:27.113Z,39.01
2019-04-22T14:00:18.485Z,38.65
2019-04-22T14:01:18.605Z,38.12
2019-04-22T14:02:18.808Z,37.82
2019-04-22T14:03:18.370Z,37.38
2019-04-22T14:04:18.558Z,37.02
2019-04-22T14:05:17.302Z,36.87
2019-04-22T14:06:18.647Z,36.72
2019-04-22T14:07:18.807Z,36.65
2019-04-22T14:08:18.454Z,36.83
2019-04-22T14:09:18.557Z,37.16
2019-04-22T14:10:18.524Z,37.30
2019-04-22T14:11:27.729Z,37.16
2019-04-22T14:12:19.760Z,37.09
2019-04-22T14:13:17.227Z,37.20
2019-04-22T14:14:17.698Z,37.59
2019-04-22T14:15:18.037Z,37.90
2019-04-22T14:16:17.237Z,38.04
2019-04-22T14:17:18.478Z,38.68
2019-04-22T14:18:17.180Z,39.06
2019-04-22T14:19:18.416Z,39.14
2019-04-22T14:20:18.568Z,39.54
2019-04-22T14:21:18.467Z,39.88
2019-04-22T14:22:17.843Z,40.11
2019-04-22T14:23:17.424Z,39.84
2019-04-22T14:24:17.845Z,39.59
2019-04-22T14:25:18.683Z,39.01
2019-04-22T14:26:17.554Z,38.70
2019-04-22T14:27:27.899Z,38.10
2019-04-22T14:28:21.137Z,37.75
2019-04-22T14:29:17.600Z,37.50
2019-04-22T14:30:17.076Z,37.40
2019-04-22T14:31:18.279Z,37.25
2019-04-22T14:32:21.800Z,36.89
2019-04-22T14:33:18.357Z,36.55
2019-04-22T14:34:18.791Z,36.23
2019-04-22T14:35:17.026Z,36.00
2019-04-22T14:36:17.204Z,35.64
2019-04-22T14:37:18.599Z,35.40